sensor_id;sensor_type;location;lat;lon;timestamp;pressure;altitude;pressure_sealevel;temperature;humidity
72110;BME280;59983;52.010;5.420;2023-07-29T00:00:02;100713.06;;;18.27;100.00
72110;BME280;59983;52.010;5.420;2023-07-29T00:02:29;100697.78;;;18.26;100.00
72110;BME280;59983;52.010;5.420;2023-07-29T00:04:57;100695.44;;;18.24;100.00
72110;BME280;59983;52.010;5.420;2023-07-29T00:07:23;100689.97;;;18.17;100.00
72110;BME280;59983;52.010;5.420;2023-07-29T00:09:50;100691.94;;;18.17;100.00
72110;BME280;59983;52.010;5.420;2023-07-29T00:12:17;100690.00;;;18.14;100.00
72110;BME280;59983;52.010;5.420;2023-07-29T00:14:43;100680.22;;;18.09;100.00
72110;BME280;59983;52.010;5.420;2023-07-29T00:17:09;100669.25;;;18.05;100.00
72110;BME280;59983;52.010;5.420;2023-07-29T00:19:36;100673.56;;;18.06;100.00
72110;BME280;59983;52.010;5.420;2023-07-29T00:22:03;100661.78;;;18.13;100.00
72110;BME280;59983;52.010;5.420;2023-07-29T00:24:30;100657.44;;;18.16;100.00
72110;BME280;59983;52.010;5.420;2023-07-29T00:26:56;100655.09;;;18.10;100.00
72110;BME280;59983;52.010;5.420;2023-07-29T00:29:23;100654.75;;;18.05;100.00
72110;BME280;59983;52.010;5.420;2023-07-29T00:31:49;100663.75;;;18.09;100.00
72110;BME280;59983;52.010;5.420;2023-07-29T00:34:16;100679.44;;;18.12;100.00
72110;BME280;59983;52.010;5.420;2023-07-29T00:36:45;100669.22;;;18.13;100.00
72110;BME280;59983;52.010;5.420;2023-07-29T00:39:12;100669.25;;;18.02;100.00
72110;BME280;59983;52.010;5.420;2023-07-29T00:41:39;100674.81;;;17.91;100.00
72110;BME280;59983;52.010;5.420;2023-07-29T00:44:06;100679.53;;;17.83;100.00
72110;BME280;59983;52.010;5.420;2023-07-29T00:46:34;100683.50;;;17.79;100.00
72110;BME280;59983;52.010;5.420;2023-07-29T00:49:02;100683.88;;;17.81;100.00
72110;BME280;59983;52.010;5.420;2023-07-29T00:51:30;100681.94;;;17.78;100.00
72110;BME280;59983;52.010;5.420;2023-07-29T00:53:57;100681.94;;;17.71;100.00
72110;BME280;59983;52.010;5.420;2023-07-29T00:56:23;100667.03;;;17.68;100.00
72110;BME280;59983;52.010;5.420;2023-07-29T00:58:50;100652.56;;;17.61;100.00
72110;BME280;59983;52.010;5.420;2023-07-29T01:01:18;100645.09;;;17.65;100.00
72110;BME280;59983;52.010;5.420;2023-07-29T01:03:44;100647.84;;;17.68;100.00
72110;BME280;59983;52.010;5.420;2023-07-29T01:06:34;100650.22;;;17.70;100.00
72110;BME280;59983;52.010;5.420;2023-07-29T01:09:30;100652.97;;;17.70;100.00
72110;BME280;59983;52.010;5.420;2023-07-29T01:15:04;100659.66;;;17.51;100.00
72110;BME280;59983;52.010;5.420;2023-07-29T01:17:36;100669.06;;;17.43;100.00
72110;BME280;59983;52.010;5.420;2023-07-29T01:20:08;100666.31;;;17.53;100.00
72110;BME280;59983;52.010;5.420;2023-07-29T01:22:36;100662.78;;;17.53;100.00
72110;BME280;59983;52.010;5.420;2023-07-29T01:25:03;100652.97;;;17.48;100.00
72110;BME280;59983;52.010;5.420;2023-07-29T01:27:30;100657.31;;;17.42;100.00
72110;BME280;59983;52.010;5.420;2023-07-29T01:29:57;100663.97;;;17.45;100.00
72110;BME280;59983;52.010;5.420;2023-07-29T01:35:25;100666.31;;;17.53;100.00
72110;BME280;59983;52.010;5.420;2023-07-29T01:37:55;100657.28;;;17.53;100.00
72110;BME280;59983;52.010;5.420;2023-07-29T01:40:26;100662.00;;;17.52;100.00
72110;BME280;59983;52.010;5.420;2023-07-29T01:42:53;100660.81;;;17.53;100.00
72110;BME280;59983;52.010;5.420;2023-07-29T01:45:24;100658.81;;;17.65;100.00
72110;BME280;59983;52.010;5.420;2023-07-29T01:47:52;100654.13;;;17.76;100.00
72110;BME280;59983;52.010;5.420;2023-07-29T01:50:19;100657.22;;;17.81;100.00
72110;BME280;59983;52.010;5.420;2023-07-29T01:52:45;100648.19;;;17.85;100.00
72110;BME280;59983;52.010;5.420;2023-07-29T01:55:12;100643.50;;;17.85;100.00
72110;BME280;59983;52.010;5.420;2023-07-29T01:57:38;100645.06;;;17.82;100.00
72110;BME280;59983;52.010;5.420;2023-07-29T02:00:06;100641.56;;;17.78;100.00
72110;BME280;59983;52.010;5.420;2023-07-29T02:02:32;100636.47;;;17.77;100.00
72110;BME280;59983;52.010;5.420;2023-07-29T02:04:59;100639.22;;;17.73;100.00
72110;BME280;59983;52.010;5.420;2023-07-29T02:07:25;100643.13;;;17.72;100.00
72110;BME280;59983;52.010;5.420;2023-07-29T02:09:53;100630.19;;;17.69;100.00
72110;BME280;59983;52.010;5.420;2023-07-29T02:12:19;100640.41;;;17.69;100.00
72110;BME280;59983;52.010;5.420;2023-07-29T02:14:46;100640.81;;;17.71;100.00
72110;BME280;59983;52.010;5.420;2023-07-29T02:17:12;100642.34;;;17.68;100.00
72110;BME280;59983;52.010;5.420;2023-07-29T02:19:39;100639.59;;;17.65;100.00
72110;BME280;59983;52.010;5.420;2023-07-29T02:22:05;100638.03;;;17.64;100.00
72110;BME280;59983;52.010;5.420;2023-07-29T02:24:32;100630.59;;;17.64;100.00
72110;BME280;59983;52.010;5.420;2023-07-29T02:26:59;100637.66;;;17.62;100.00
72110;BME280;59983;52.010;5.420;2023-07-29T02:29:25;100635.34;;;17.60;100.00
72110;BME280;59983;52.010;5.420;2023-07-29T02:31:52;100635.72;;;17.59;100.00
72110;BME280;59983;52.010;5.420;2023-07-29T02:34:18;100632.59;;;17.56;100.00
72110;BME280;59983;52.010;5.420;2023-07-29T02:36:45;100625.16;;;17.53;100.00
72110;BME280;59983;52.010;5.420;2023-07-29T02:39:12;100625.94;;;17.54;100.00
72110;BME280;59983;52.010;5.420;2023-07-29T02:41:38;100622.41;;;17.53;100.00
72110;BME280;59983;52.010;5.420;2023-07-29T02:44:05;100628.69;;;17.47;100.00
72110;BME280;59983;52.010;5.420;2023-07-29T02:46:31;100616.19;;;17.42;100.00
72110;BME280;59983;52.010;5.420;2023-07-29T02:48:58;100620.50;;;17.40;100.00
72110;BME280;59983;52.010;5.420;2023-07-29T02:51:25;100617.00;;;17.36;100.00
72110;BME280;59983;52.010;5.420;2023-07-29T02:53:52;100613.84;;;17.37;100.00
72110;BME280;59983;52.010;5.420;2023-07-29T02:56:18;100615.41;;;17.42;100.00
72110;BME280;59983;52.010;5.420;2023-07-29T02:58:45;100613.44;;;17.39;100.00
72110;BME280;59983;52.010;5.420;2023-07-29T03:01:11;100622.44;;;17.39;100.00
72110;BME280;59983;52.010;5.420;2023-07-29T03:03:39;100618.56;;;17.37;100.00
72110;BME280;59983;52.010;5.420;2023-07-29T03:06:08;100612.28;;;17.36;100.00
72110;BME280;59983;52.010;5.420;2023-07-29T03:08:35;100606.44;;;17.34;100.00
72110;BME280;59983;52.010;5.420;2023-07-29T03:11:06;100602.06;;;17.40;100.00
72110;BME280;59983;52.010;5.420;2023-07-29T03:13:33;100603.25;;;17.46;100.00
72110;BME280;59983;52.010;5.420;2023-07-29T03:16:11;100597.34;;;17.48;100.00
72110;BME280;59983;52.010;5.420;2023-07-29T03:18:38;100605.97;;;17.53;100.00
72110;BME280;59983;52.010;5.420;2023-07-29T03:21:05;100609.09;;;17.55;100.00
72110;BME280;59983;52.010;5.420;2023-07-29T03:23:33;100606.34;;;17.55;100.00
72110;BME280;59983;52.010;5.420;2023-07-29T03:26:00;100609.88;;;17.56;100.00
72110;BME280;59983;52.010;5.420;2023-07-29T03:28:29;100612.22;;;17.54;100.00
72110;BME280;59983;52.010;5.420;2023-07-29T03:30:56;100611.06;;;17.51;100.00
72110;BME280;59983;52.010;5.420;2023-07-29T03:33:24;100612.25;;;17.50;100.00
72110;BME280;59983;52.010;5.420;2023-07-29T03:35:54;100614.59;;;17.52;100.00
72110;BME280;59983;52.010;5.420;2023-07-29T03:38:20;100605.59;;;17.51;100.00
72110;BME280;59983;52.010;5.420;2023-07-29T03:40:47;100613.78;;;17.55;100.00
72110;BME280;59983;52.010;5.420;2023-07-29T03:43:13;100616.97;;;17.50;100.00
72110;BME280;59983;52.010;5.420;2023-07-29T03:45:40;100621.66;;;17.49;100.00
72110;BME280;59983;52.010;5.420;2023-07-29T03:48:07;100619.72;;;17.43;100.00
72110;BME280;59983;52.010;5.420;2023-07-29T03:50:35;100621.72;;;17.32;100.00
72110;BME280;59983;52.010;5.420;2023-07-29T03:53:03;100615.84;;;17.26;100.00
72110;BME280;59983;52.010;5.420;2023-07-29T03:55:31;100614.28;;;17.21;100.00
72110;BME280;59983;52.010;5.420;2023-07-29T03:57:58;100624.47;;;17.21;100.00
72110;BME280;59983;52.010;5.420;2023-07-29T04:00:25;100615.47;;;17.13;100.00
72110;BME280;59983;52.010;5.420;2023-07-29T04:02:52;100626.06;;;17.11;100.00
72110;BME280;59983;52.010;5.420;2023-07-29T04:05:19;100625.28;;;17.04;100.00
72110;BME280;59983;52.010;5.420;2023-07-29T04:07:46;100628.06;;;16.96;100.00
72110;BME280;59983;52.010;5.420;2023-07-29T04:10:12;100624.13;;;16.94;100.00
72110;BME280;59983;52.010;5.420;2023-07-29T04:12:39;100622.19;;;16.91;100.00
72110;BME280;59983;52.010;5.420;2023-07-29T04:15:06;100619.84;;;16.89;100.00
72110;BME280;59983;52.010;5.420;2023-07-29T04:17:33;100604.56;;;16.85;100.00
72110;BME280;59983;52.010;5.420;2023-07-29T04:19:59;100602.22;;;16.80;100.00
72110;BME280;59983;52.010;5.420;2023-07-29T04:22:26;100601.44;;;16.79;100.00
72110;BME280;59983;52.010;5.420;2023-07-29T04:24:52;100605.75;;;16.77;100.00
72110;BME280;59983;52.010;5.420;2023-07-29T04:27:20;100604.19;;;16.76;100.00
72110;BME280;59983;52.010;5.420;2023-07-29T04:29:46;100608.88;;;16.72;100.00
72110;BME280;59983;52.010;5.420;2023-07-29T04:32:13;100607.69;;;16.69;100.00
72110;BME280;59983;52.010;5.420;2023-07-29T04:34:39;100601.44;;;16.68;100.00
72110;BME280;59983;52.010;5.420;2023-07-29T04:37:06;100612.81;;;16.70;100.00
72110;BME280;59983;52.010;5.420;2023-07-29T04:39:32;100617.06;;;16.68;100.00
72110;BME280;59983;52.010;5.420;2023-07-29T04:41:59;100620.59;;;16.61;100.00
72110;BME280;59983;52.010;5.420;2023-07-29T04:44:27;100631.94;;;16.53;100.00
72110;BME280;59983;52.010;5.420;2023-07-29T04:46:53;100628.44;;;16.52;100.00
72110;BME280;59983;52.010;5.420;2023-07-29T04:49:20;100620.22;;;16.52;100.00
72110;BME280;59983;52.010;5.420;2023-07-29T04:51:46;100623.72;;;16.53;100.00
72110;BME280;59983;52.010;5.420;2023-07-29T04:54:13;100631.16;;;16.52;100.00
72110;BME280;59983;52.010;5.420;2023-07-29T04:56:40;100624.88;;;16.52;100.00
72110;BME280;59983;52.010;5.420;2023-07-29T04:59:06;100633.09;;;16.52;100.00
72110;BME280;59983;52.010;5.420;2023-07-29T05:01:34;100636.63;;;16.52;100.00
72110;BME280;59983;52.010;5.420;2023-07-29T05:04:01;100639.38;;;16.52;100.00
72110;BME280;59983;52.010;5.420;2023-07-29T05:06:28;100645.25;;;16.54;100.00
72110;BME280;59983;52.010;5.420;2023-07-29T05:08:57;100639.38;;;16.56;100.00
72110;BME280;59983;52.010;5.420;2023-07-29T05:11:24;100645.63;;;16.56;100.00
72110;BME280;59983;52.010;5.420;2023-07-29T05:13:51;100642.88;;;16.56;100.00
72110;BME280;59983;52.010;5.420;2023-07-29T05:16:18;100642.50;;;16.58;100.00
72110;BME280;59983;52.010;5.420;2023-07-29T05:18:44;100644.06;;;16.59;100.00
72110;BME280;59983;52.010;5.420;2023-07-29T05:21:11;100645.25;;;16.61;100.00
72110;BME280;59983;52.010;5.420;2023-07-29T05:23:40;100648.78;;;16.62;100.00
72110;BME280;59983;52.010;5.420;2023-07-29T05:26:07;100649.56;;;16.62;100.00
72110;BME280;59983;52.010;5.420;2023-07-29T05:28:33;100649.94;;;16.64;100.00
72110;BME280;59983;52.010;5.420;2023-07-29T05:31:01;100656.59;;;16.67;100.00
72110;BME280;59983;52.010;5.420;2023-07-29T05:33:28;100649.56;;;16.69;100.00
72110;BME280;59983;52.010;5.420;2023-07-29T05:35:54;100644.09;;;16.69;100.00
72110;BME280;59983;52.010;5.420;2023-07-29T05:38:21;100658.19;;;16.72;100.00
72110;BME280;59983;52.010;5.420;2023-07-29T05:40:48;100649.97;;;16.75;100.00
72110;BME280;59983;52.010;5.420;2023-07-29T05:43:15;100653.09;;;16.77;100.00
72110;BME280;59983;52.010;5.420;2023-07-29T05:45:42;100662.50;;;16.80;100.00
72110;BME280;59983;52.010;5.420;2023-07-29T05:48:08;100657.00;;;16.83;100.00
72110;BME280;59983;52.010;5.420;2023-07-29T05:50:35;100653.47;;;16.86;100.00
72110;BME280;59983;52.010;5.420;2023-07-29T05:53:01;100653.50;;;16.90;100.00
72110;BME280;59983;52.010;5.420;2023-07-29T05:55:28;100655.84;;;16.91;100.00
72110;BME280;59983;52.010;5.420;2023-07-29T05:57:54;100651.53;;;16.94;100.00
72110;BME280;59983;52.010;5.420;2023-07-29T06:00:21;100655.06;;;16.98;100.00
72110;BME280;59983;52.010;5.420;2023-07-29T06:02:48;100653.84;;;17.03;100.00
72110;BME280;59983;52.010;5.420;2023-07-29T06:05:14;100656.22;;;17.08;100.00
72110;BME280;59983;52.010;5.420;2023-07-29T06:07:41;100651.09;;;17.13;100.00
72110;BME280;59983;52.010;5.420;2023-07-29T06:10:16;100647.97;;;17.18;100.00
72110;BME280;59983;52.010;5.420;2023-07-29T06:12:46;100653.44;;;17.25;100.00
72110;BME280;59983;52.010;5.420;2023-07-29T06:15:13;100650.69;;;17.33;100.00
72110;BME280;59983;52.010;5.420;2023-07-29T06:17:40;100648.31;;;17.38;100.00
72110;BME280;59983;52.010;5.420;2023-07-29T06:20:07;100657.69;;;17.48;100.00
72110;BME280;59983;52.010;5.420;2023-07-29T06:22:34;100668.28;;;17.49;100.00
72110;BME280;59983;52.010;5.420;2023-07-29T06:25:01;100662.41;;;17.51;100.00
72110;BME280;59983;52.010;5.420;2023-07-29T06:27:27;100662.75;;;17.60;100.00
72110;BME280;59983;52.010;5.420;2023-07-29T06:29:54;100658.44;;;17.63;100.00
72110;BME280;59983;52.010;5.420;2023-07-29T06:32:20;100658.81;;;17.65;100.00
72110;BME280;59983;52.010;5.420;2023-07-29T06:34:47;100661.97;;;17.70;100.00
72110;BME280;59983;52.010;5.420;2023-07-29T06:37:14;100663.88;;;17.80;100.00
72110;BME280;59983;52.010;5.420;2023-07-29T06:39:40;100661.91;;;17.88;100.00
72110;BME280;59983;52.010;5.420;2023-07-29T06:42:07;100674.38;;;18.00;100.00
72110;BME280;59983;52.010;5.420;2023-07-29T06:44:33;100667.34;;;17.95;100.00
72110;BME280;59983;52.010;5.420;2023-07-29T06:47:00;100677.56;;;17.91;100.00
72110;BME280;59983;52.010;5.420;2023-07-29T06:49:26;100669.34;;;17.88;100.00
72110;BME280;59983;52.010;5.420;2023-07-29T06:51:53;100668.53;;;17.91;100.00
72110;BME280;59983;52.010;5.420;2023-07-29T06:54:24;100666.91;;;18.00;100.00
72110;BME280;59983;52.010;5.420;2023-07-29T06:56:51;100674.75;;;18.05;100.00
72110;BME280;59983;52.010;5.420;2023-07-29T06:59:18;100689.22;;;18.13;100.00
72110;BME280;59983;52.010;5.420;2023-07-29T07:01:44;100677.06;;;18.14;100.00
72110;BME280;59983;52.010;5.420;2023-07-29T07:04:11;100683.34;;;18.15;100.00
72110;BME280;59983;52.010;5.420;2023-07-29T07:06:37;100679.03;;;18.10;100.00
72110;BME280;59983;52.010;5.420;2023-07-29T07:09:04;100686.88;;;18.11;100.00
72110;BME280;59983;52.010;5.420;2023-07-29T07:11:31;100682.19;;;18.08;100.00
72110;BME280;59983;52.010;5.420;2023-07-29T07:13:57;100692.00;;;18.06;100.00
72110;BME280;59983;52.010;5.420;2023-07-29T07:16:24;100683.38;;;18.07;100.00
72110;BME280;59983;52.010;5.420;2023-07-29T07:18:51;100688.03;;;18.10;100.00
72110;BME280;59983;52.010;5.420;2023-07-29T07:21:17;100680.59;;;18.15;100.00
72110;BME280;59983;52.010;5.420;2023-07-29T07:23:44;100695.84;;;18.19;100.00
72110;BME280;59983;52.010;5.420;2023-07-29T07:26:10;100687.59;;;18.23;100.00
72110;BME280;59983;52.010;5.420;2023-07-29T07:28:37;100685.22;;;18.25;100.00
72110;BME280;59983;52.010;5.420;2023-07-29T07:31:03;100686.38;;;18.27;100.00
72110;BME280;59983;52.010;5.420;2023-07-29T07:33:30;100690.69;;;18.32;100.00
72110;BME280;59983;52.010;5.420;2023-07-29T07:35:56;100683.19;;;18.39;100.00
72110;BME280;59983;52.010;5.420;2023-07-29T07:38:23;100691.00;;;18.48;100.00
72110;BME280;59983;52.010;5.420;2023-07-29T07:40:54;100689.41;;;18.51;100.00
72110;BME280;59983;52.010;5.420;2023-07-29T07:43:22;100688.97;;;18.52;100.00
72110;BME280;59983;52.010;5.420;2023-07-29T07:45:50;100690.13;;;18.58;100.00
72110;BME280;59983;52.010;5.420;2023-07-29T07:48:17;100684.63;;;18.58;100.00
72110;BME280;59983;52.010;5.420;2023-07-29T07:50:46;100685.41;;;18.59;100.00
72110;BME280;59983;52.010;5.420;2023-07-29T07:53:13;100683.44;;;18.59;100.00
72110;BME280;59983;52.010;5.420;2023-07-29T07:55:39;100690.13;;;18.58;100.00
72110;BME280;59983;52.010;5.420;2023-07-29T07:58:06;100699.16;;;18.59;100.00
72110;BME280;59983;52.010;5.420;2023-07-29T08:00:32;100690.91;;;18.59;100.00
72110;BME280;59983;52.010;5.420;2023-07-29T08:02:59;100699.91;;;18.63;100.00
72110;BME280;59983;52.010;5.420;2023-07-29T08:05:25;100695.16;;;18.71;100.00
72110;BME280;59983;52.010;5.420;2023-07-29T08:07:52;100691.53;;;18.84;100.00
72110;BME280;59983;52.010;5.420;2023-07-29T08:10:18;100699.63;;;19.02;100.00
72110;BME280;59983;52.010;5.420;2023-07-29T08:12:45;100703.63;;;19.39;100.00
72110;BME280;59983;52.010;5.420;2023-07-29T08:15:12;100699.59;;;19.47;100.00
72110;BME280;59983;52.010;5.420;2023-07-29T08:17:38;100699.25;;;19.45;100.00
72110;BME280;59983;52.010;5.420;2023-07-29T08:20:05;100710.31;;;19.38;100.00
72110;BME280;59983;52.010;5.420;2023-07-29T08:22:33;100701.66;;;19.39;100.00
72110;BME280;59983;52.010;5.420;2023-07-29T08:24:59;100701.16;;;19.48;100.00
72110;BME280;59983;52.010;5.420;2023-07-29T08:27:26;100697.97;;;19.53;100.00
72110;BME280;59983;52.010;5.420;2023-07-29T08:29:53;100699.19;;;19.48;100.00
72110;BME280;59983;52.010;5.420;2023-07-29T08:32:20;100704.28;;;19.50;100.00
72110;BME280;59983;52.010;5.420;2023-07-29T08:34:47;100707.88;;;19.47;100.00
72110;BME280;59983;52.010;5.420;2023-07-29T08:37:14;100709.47;;;19.41;100.00
72110;BME280;59983;52.010;5.420;2023-07-29T08:39:40;100700.81;;;19.42;100.00
72110;BME280;59983;52.010;5.420;2023-07-29T08:42:11;100707.56;;;19.38;100.00
72110;BME280;59983;52.010;5.420;2023-07-29T08:44:43;100702.53;;;19.29;100.00
72110;BME280;59983;52.010;5.420;2023-07-29T08:47:11;100702.97;;;19.24;100.00
72110;BME280;59983;52.010;5.420;2023-07-29T08:49:40;100716.94;;;19.44;100.00
72110;BME280;59983;52.010;5.420;2023-07-29T08:52:08;100712.34;;;19.71;100.00
72110;BME280;59983;52.010;5.420;2023-07-29T08:54:36;100713.84;;;19.76;100.00
72110;BME280;59983;52.010;5.420;2023-07-29T08:57:03;100714.56;;;19.84;100.00
72110;BME280;59983;52.010;5.420;2023-07-29T08:59:30;100713.97;;;19.99;100.00
72110;BME280;59983;52.010;5.420;2023-07-29T09:01:58;100705.00;;;20.26;100.00
72110;BME280;59983;52.010;5.420;2023-07-29T09:04:24;100705.44;;;20.21;100.00
72110;BME280;59983;52.010;5.420;2023-07-29T09:06:52;100705.47;;;20.48;100.00
72110;BME280;59983;52.010;5.420;2023-07-29T09:09:20;100706.34;;;20.41;100.00
72110;BME280;59983;52.010;5.420;2023-07-29T09:11:48;100710.28;;;20.44;100.00
72110;BME280;59983;52.010;5.420;2023-07-29T09:14:14;100710.00;;;20.31;100.00
72110;BME280;59983;52.010;5.420;2023-07-29T09:16:41;100719.59;;;20.53;100.00
72110;BME280;59983;52.010;5.420;2023-07-29T09:19:08;100704.69;;;20.74;100.00
72110;BME280;59983;52.010;5.420;2023-07-29T09:21:38;100707.97;;;20.65;99.64
72110;BME280;59983;52.010;5.420;2023-07-29T09:24:05;100711.91;;;20.68;100.00
72110;BME280;59983;52.010;5.420;2023-07-29T09:26:34;100701.38;;;20.86;100.00
72110;BME280;59983;52.010;5.420;2023-07-29T09:29:01;100704.25;;;21.03;97.05
72110;BME280;59983;52.010;5.420;2023-07-29T09:31:29;100706.88;;;20.86;94.21
72110;BME280;59983;52.010;5.420;2023-07-29T09:33:58;100711.81;;;20.72;95.30
72110;BME280;59983;52.010;5.420;2023-07-29T09:36:25;100709.19;;;20.64;97.70
72110;BME280;59983;52.010;5.420;2023-07-29T09:38:56;100715.47;;;20.65;95.52
72110;BME280;59983;52.010;5.420;2023-07-29T09:41:27;100701.31;;;20.63;98.30
72110;BME280;59983;52.010;5.420;2023-07-29T09:43:59;100699.97;;;20.75;96.74
72110;BME280;59983;52.010;5.420;2023-07-29T09:46:34;100693.97;;;20.80;97.60
72110;BME280;59983;52.010;5.420;2023-07-29T09:49:06;100704.91;;;20.87;92.83
72110;BME280;59983;52.010;5.420;2023-07-29T09:51:38;100713.59;;;20.85;91.60
72110;BME280;59983;52.010;5.420;2023-07-29T09:54:06;100715.19;;;20.83;95.48
72110;BME280;59983;52.010;5.420;2023-07-29T09:56:33;100708.63;;;20.77;93.39
72110;BME280;59983;52.010;5.420;2023-07-29T09:59:00;100712.59;;;20.72;96.54
72110;BME280;59983;52.010;5.420;2023-07-29T10:01:31;100694.69;;;20.84;99.15
72110;BME280;59983;52.010;5.420;2023-07-29T10:03:58;100695.00;;;21.13;97.65
72110;BME280;59983;52.010;5.420;2023-07-29T10:06:28;100701.34;;;21.10;98.43
72110;BME280;59983;52.010;5.420;2023-07-29T10:08:56;100711.09;;;20.95;96.67
72110;BME280;59983;52.010;5.420;2023-07-29T10:11:23;100705.16;;;20.96;95.75
72110;BME280;59983;52.010;5.420;2023-07-29T10:13:51;100701.31;;;21.13;95.21
72110;BME280;59983;52.010;5.420;2023-07-29T10:16:35;100703.56;;;21.18;95.43
72110;BME280;59983;52.010;5.420;2023-07-29T10:19:04;100704.72;;;21.21;96.39
72110;BME280;59983;52.010;5.420;2023-07-29T10:21:31;100709.34;;;21.28;93.75
72110;BME280;59983;52.010;5.420;2023-07-29T10:24:01;100711.38;;;21.24;92.62
72110;BME280;59983;52.010;5.420;2023-07-29T10:26:30;100707.19;;;21.15;91.27
72110;BME280;59983;52.010;5.420;2023-07-29T10:28:59;100713.66;;;21.05;92.25
72110;BME280;59983;52.010;5.420;2023-07-29T10:31:32;100703.81;;;21.04;93.19
72110;BME280;59983;52.010;5.420;2023-07-29T10:33:59;100707.72;;;21.07;95.94
72110;BME280;59983;52.010;5.420;2023-07-29T10:36:27;100706.03;;;21.13;96.50
72110;BME280;59983;52.010;5.420;2023-07-29T10:38:54;100709.59;;;21.13;97.16
72110;BME280;59983;52.010;5.420;2023-07-29T10:41:21;100702.44;;;21.16;96.50
72110;BME280;59983;52.010;5.420;2023-07-29T10:43:47;100706.97;;;21.26;94.61
72110;BME280;59983;52.010;5.420;2023-07-29T10:46:18;100703.56;;;21.18;94.00
72110;BME280;59983;52.010;5.420;2023-07-29T10:51:37;100714.41;;;20.82;93.26
72110;BME280;59983;52.010;5.420;2023-07-29T10:54:13;100715.03;;;20.67;92.24
72110;BME280;59983;52.010;5.420;2023-07-29T10:56:43;100719.53;;;20.57;94.23
72110;BME280;59983;52.010;5.420;2023-07-29T11:01:40;100716.38;;;20.58;95.02
72110;BME280;59983;52.010;5.420;2023-07-29T11:12:41;100713.19;;;20.29;97.82
72110;BME280;59983;52.010;5.420;2023-07-29T11:17:37;100723.19;;;19.86;100.00
72110;BME280;59983;52.010;5.420;2023-07-29T11:20:05;100727.38;;;19.63;100.00
72110;BME280;59983;52.010;5.420;2023-07-29T11:22:34;100715.25;;;19.53;100.00
72110;BME280;59983;52.010;5.420;2023-07-29T11:25:01;100722.03;;;19.42;100.00
72110;BME280;59983;52.010;5.420;2023-07-29T11:27:27;100723.34;;;19.30;100.00
72110;BME280;59983;52.010;5.420;2023-07-29T11:29:58;100728.59;;;19.17;100.00
72110;BME280;59983;52.010;5.420;2023-07-29T11:32:25;100727.88;;;19.06;100.00
72110;BME280;59983;52.010;5.420;2023-07-29T11:34:52;100725.22;;;18.95;100.00
72110;BME280;59983;52.010;5.420;2023-07-29T11:37:19;100721.38;;;18.86;100.00
72110;BME280;59983;52.010;5.420;2023-07-29T11:39:47;100728.09;;;18.78;100.00
72110;BME280;59983;52.010;5.420;2023-07-29T11:42:15;100719.13;;;18.70;100.00
72110;BME280;59983;52.010;5.420;2023-07-29T11:44:41;100718.75;;;18.64;100.00
72110;BME280;59983;52.010;5.420;2023-07-29T11:47:09;100710.91;;;18.59;100.00
72110;BME280;59983;52.010;5.420;2023-07-29T11:49:38;100720.34;;;18.55;100.00
72110;BME280;59983;52.010;5.420;2023-07-29T11:52:09;100723.53;;;18.46;100.00
72110;BME280;59983;52.010;5.420;2023-07-29T11:54:37;100727.09;;;18.43;100.00
72110;BME280;59983;52.010;5.420;2023-07-29T11:57:08;100716.50;;;18.45;100.00
72110;BME280;59983;52.010;5.420;2023-07-29T11:59:36;100732.56;;;18.50;100.00
72110;BME280;59983;52.010;5.420;2023-07-29T12:02:10;100725.47;;;18.53;100.00
72110;BME280;59983;52.010;5.420;2023-07-29T12:04:39;100726.25;;;18.57;100.00
72110;BME280;59983;52.010;5.420;2023-07-29T12:07:06;100739.56;;;18.65;100.00
72110;BME280;59983;52.010;5.420;2023-07-29T12:09:34;100743.84;;;18.70;100.00
72110;BME280;59983;52.010;5.420;2023-07-29T12:12:02;100728.00;;;18.88;100.00
72110;BME280;59983;52.010;5.420;2023-07-29T12:14:29;100726.63;;;19.14;100.00
72110;BME280;59983;52.010;5.420;2023-07-29T12:17:00;100722.97;;;19.28;100.00
72110;BME280;59983;52.010;5.420;2023-07-29T12:19:34;100716.59;;;19.38;100.00
72110;BME280;59983;52.010;5.420;2023-07-29T12:22:05;100723.25;;;19.41;100.00
72110;BME280;59983;52.010;5.420;2023-07-29T12:24:33;100718.88;;;19.47;100.00
72110;BME280;59983;52.010;5.420;2023-07-29T12:27:01;100717.81;;;19.75;100.00
72110;BME280;59983;52.010;5.420;2023-07-29T12:29:28;100710.88;;;19.97;100.00
72110;BME280;59983;52.010;5.420;2023-07-29T12:32:02;100713.66;;;20.55;100.00
72110;BME280;59983;52.010;5.420;2023-07-29T12:34:30;100717.66;;;20.77;100.00
72110;BME280;59983;52.010;5.420;2023-07-29T12:36:58;100716.50;;;20.48;100.00
72110;BME280;59983;52.010;5.420;2023-07-29T12:39:27;100720.00;;;20.21;100.00
72110;BME280;59983;52.010;5.420;2023-07-29T12:41:58;100725.63;;;20.11;100.00
72110;BME280;59983;52.010;5.420;2023-07-29T12:44:29;100722.25;;;19.99;100.00
72110;BME280;59983;52.010;5.420;2023-07-29T12:46:55;100716.88;;;19.89;100.00
72110;BME280;59983;52.010;5.420;2023-07-29T12:49:22;100723.72;;;19.73;100.00
72110;BME280;59983;52.010;5.420;2023-07-29T12:51:49;100724.66;;;19.60;100.00
72110;BME280;59983;52.010;5.420;2023-07-29T12:54:15;100721.97;;;19.49;100.00
72110;BME280;59983;52.010;5.420;2023-07-29T12:56:42;100714.63;;;19.39;100.00
72110;BME280;59983;52.010;5.420;2023-07-29T12:59:08;100714.66;;;19.35;100.00
72110;BME280;59983;52.010;5.420;2023-07-29T13:01:35;100711.13;;;19.35;100.00
72110;BME280;59983;52.010;5.420;2023-07-29T13:04:02;100718.59;;;19.34;100.00